VIE weather

Vienna International Airport
Vienna, Vienna, Austria

Public forecast

Using degrees Celsius for public forecast. Weather courtesy of forecast.io.

METAR (pilot weather report)

Retrieved 2017/10/24 06:20 UTC (17 minutes ago):

LOWW 240620Z 32016KT 9999 FEW025 OVC060 10/06 Q1022 NOSIG

TAF (pilot weather forecast)

Retrieved 2017/10/24 06:18 UTC (19 minutes ago):

TAF LOWW 240515Z 2406/2512 32015G25KT 9999 BKN050 TX13/2413Z TN06/2502Z TEMPO 2408/2414 33020G30KT BECMG 2416/2419 32007KT SCT050 BECMG 2503/2506 15004KT